Track Палаус Илья Хабаровский край

Time Latitude Longitude Accuracy (66% radius in meters) Altitude (meters) Speed (km/hour) Bearing (degrees) Battery (%) GPS flag
04:22:45 43.170769 132.076100 5.5 78.300003051758 0 0 54 1 delete
04:22:00 43.170721 132.076089 6 77.5 0.38999998569489 154.40185546875 54 1 delete
04:21:48 43.170777 132.076047 7 76.800003051758 0.1799999922514 115.23559570312 54 1 delete
04:21:36 43.170829 132.076031 6.5 77.199996948242 0.23999999463558 174.73205566406 54 1 delete
04:21:06 43.170853 132.076090 6.5 73.5 0.75999999046326 55.750122070312 54 1 delete
04:20:27 43.170789 132.075994 7 74.699996948242 0 0 54 1 delete
04:20:15 43.170786 132.076058 6 71.099998474121 0 0 54 1 delete
04:19:48 43.170829 132.076040 5 75.199996948242 0.37000000476837 12.4365234375 54 1 delete
04:16:57 43.170784 132.076029 4 74.5 0.0099999997764826 328.44177246094 56 1 delete
04:16:36 43.170780 132.075965 4.5 73.400001525879 0.94999998807907 37.474365234375 56 1 delete
04:16:12 43.170786 132.076043 4 72 0.75999999046326 263.90258789062 56 1 delete
04:14:45 43.170825 132.076097 4.5 70.099998474121 0.17000000178814 118.43811035156 56 1 delete
04:12:36 43.170823 132.076033 5.5 70.800003051758 0 0 56 1 delete
04:12:12 43.170786 132.076076 7 74.699996948242 0.62999999523163 125.91430664062 56 1 delete
04:10:27 43.170812 132.075999 5 75.199996948242 0.41999998688698 79.716796875 56 1 delete
04:10:18 43.170795 132.075939 4.5 73.599998474121 0 0 56 1 delete
04:10:03 43.170747 132.075952 5.5 73.599998474121 0 0 56 1 delete
04:09:24 43.170797 132.075973 4 72.599998474121 1.0299999713898 174.57824707031 56 1 delete
04:09:15 43.170841 132.075944 4 72.400001525879 0.87999999523163 137.91137695312 56 1 delete
04:09:09 43.170896 132.075901 4 72.5 0.74000000953674 175.869140625 56 1 delete
04:09:03 43.170947 132.075914 4 73.099998474121 0.81000000238419 158.57666015625 56 1 delete
04:08:57 43.170977 132.075868 4.5 73.599998474121 1.0099999904633 165.43212890625 56 1 delete
04:08:48 43.171039 132.075820 4.5 71.800003051758 0.5799999833107 124.70031738281 56 1 delete
04:08:42 43.171113 132.075817 6 72.300003051758 1.5 150.89172363281 56 1 delete
04:08:36 43.171198 132.075787 4.5 72 1.1299999952316 159.35119628906 56 1 delete
04:08:30 43.171257 132.075776 4.5 70 1.1100000143051 152.666015625 56 1 delete
04:08:24 43.171328 132.075715 4.5 72.199996948242 0.70999997854233 196.46301269531 56 1 delete
04:08:00 43.171341 132.075810 5.5 66 0.5799999833107 71.812133789062 56 1 delete
04:04:48 43.171403 132.075766 6 69.300003051758 0.29999998211861 353.13903808594 56 1 delete
04:04:27 43.171447 132.075681 4.5 67.699996948242 0.15999999642372 267.00622558594 56 1 delete
04:03:36 43.171406 132.075780 6 64.5 0 0 56 1 delete
04:03:27 43.171395 132.075867 7.5 69.699996948242 0 0 56 1 delete
04:03:12 43.171349 132.075839 6.5 67.199996948242 0.19999998807907 327.35412597656 56 1 delete
04:02:51 43.171384 132.075781 4 68.300003051758 0.20999999344349 119.30603027344 56 1 delete
04:01:39 43.171369 132.075709 5.5 70.199996948242 0.059999998658895 130.55603027344 56 1 delete
04:00:18 43.171409 132.075589 6 69.599998474121 0.45999997854233 329.17785644531 56 1 delete
03:59:45 43.171361 132.075664 6.5 74.199996948242 0.099999994039536 321.328125 56 1 delete
03:59:33 43.171374 132.075735 6 76.900001525879 0.31000000238419 272.34558105469 56 1 delete
03:59:06 43.171388 132.075822 4 77 0.089999996125698 291.11022949219 56 1 delete
03:58:45 43.171350 132.075858 4 79.599998474121 0.049999997019768 273.03771972656 58 1 delete
03:58:27 43.171296 132.075797 4.5 76.699996948242 0.26999998092651 34.12353515625 58 1 delete
03:58:15 43.171318 132.075720 4.5 77.5 0.71999996900558 159.71374511719 58 1 delete
03:57:00 43.171367 132.075704 4.5 77.900001525879 0.18999999761581 356.78100585938 58 1 delete
03:55:51 43.171398 132.075638 3.5 83.400001525879 0.37000000476837 193.095703125 58 1 delete
03:54:15 43.171484 132.075687 4.5 80.400001525879 0.099999994039536 254.619140625 58 1 delete
03:54:09 43.171477 132.075749 5 76.699996948242 0.21999999880791 21.214599609375 58 1 delete
03:53:21 43.171387 132.075774 4.5 71.800003051758 0.1499999910593 51.553344726562 58 1 delete
03:52:39 43.171333 132.075837 3.5 73.800003051758 0 0 58 1 delete
03:51:15 43.171372 132.075786 3.5 78.099998474121 0 0 58 1 delete
03:50:42 43.171405 132.075698 4.5 76.800003051758 0.37999999523163 337.92297363281 58 1 delete